createdAt,value
2023-06-18T00:04:22.457Z,17.08
2023-06-18T00:09:24.911Z,16.38
2023-06-18T00:14:25.560Z,15.82
2023-06-18T00:19:26.248Z,16.95
2023-06-18T00:24:28.324Z,16.67
2023-06-18T00:29:30.681Z,17.60
2023-06-18T00:34:34.134Z,15.77
2023-06-18T00:39:36.618Z,14.68
2023-06-18T00:44:41.119Z,13.75
2023-06-18T00:49:42.723Z,13.27
2023-06-18T00:54:46.742Z,12.07
2023-06-18T00:59:48.197Z,12.52
2023-06-18T01:04:48.921Z,11.90
2023-06-18T01:09:54.482Z,11.65
2023-06-18T01:14:55.593Z,12.15
2023-06-18T01:19:59.464Z,11.65
2023-06-18T01:25:04.946Z,10.52
2023-06-18T01:30:06.917Z,10.93
2023-06-18T01:35:09.250Z,11.25
2023-06-18T01:40:17.890Z,10.55
2023-06-18T01:45:26.157Z,11.10
2023-06-18T01:50:28.697Z,10.50
2023-06-18T01:55:34.298Z,10.60
2023-06-18T02:00:35.386Z,10.32
2023-06-18T02:05:36.279Z,10.65
2023-06-18T02:10:38.263Z,10.60
2023-06-18T02:15:42.940Z,9.43
2023-06-18T02:20:43.973Z,9.32
2023-06-18T02:25:46.636Z,9.65
2023-06-18T02:30:50.308Z,10.90
2023-06-18T02:35:50.977Z,8.82
2023-06-18T02:40:52.956Z,9.13
2023-06-18T02:45:53.769Z,8.60
2023-06-18T02:50:54.482Z,7.95
2023-06-18T02:55:56.613Z,7.55
2023-06-18T03:00:57.615Z,8.07
2023-06-18T03:05:58.750Z,9.27
2023-06-18T03:11:01.096Z,8.52
2023-06-18T03:16:04.821Z,9.13
2023-06-18T03:21:08.077Z,8.60
2023-06-18T03:26:10.705Z,8.57
2023-06-18T03:31:11.743Z,8.65
2023-06-18T03:36:16.770Z,8.75
2023-06-18T03:41:18.880Z,8.60
2023-06-18T03:46:20.271Z,8.85
2023-06-18T03:51:21.778Z,8.30
2023-06-18T03:56:24.173Z,7.57
2023-06-18T04:01:25.387Z,8.32
2023-06-18T04:06:26.185Z,8.02
2023-06-18T04:11:28.921Z,8.45
2023-06-18T04:16:30.308Z,8.10
2023-06-18T04:21:32.394Z,7.25
2023-06-18T04:26:34.595Z,7.25
2023-06-18T04:31:35.884Z,7.20
2023-06-18T04:36:38.050Z,8.35
2023-06-18T04:41:40.228Z,7.93
2023-06-18T04:46:41.485Z,7.18
2023-06-18T04:51:44.592Z,7.40
2023-06-18T04:56:49.518Z,7.35
2023-06-18T05:01:50.267Z,7.13
2023-06-18T05:06:51.061Z,6.78
2023-06-18T05:11:53.696Z,7.43
2023-06-18T05:16:54.597Z,7.25
2023-06-18T05:21:55.453Z,6.32
2023-06-18T05:26:59.900Z,6.18
2023-06-18T05:32:01.273Z,6.22
2023-06-18T05:37:05.732Z,6.40
2023-06-18T05:42:09.286Z,6.55
2023-06-18T05:47:10.553Z,5.78
2023-06-18T05:52:11.467Z,5.25
2023-06-18T05:57:14.817Z,6.22
2023-06-18T06:02:16.257Z,6.22
2023-06-18T06:07:17.744Z,4.80
2023-06-18T06:12:19.852Z,5.18
2023-06-18T06:17:20.656Z,5.05
2023-06-18T06:22:21.433Z,5.28
2023-06-18T06:27:23.748Z,5.50
2023-06-18T06:32:24.457Z,5.50
2023-06-18T06:37:25.275Z,5.38
2023-06-18T06:42:28.078Z,5.65
2023-06-18T06:47:49.477Z,5.07
2023-06-18T06:53:03.977Z,4.75
2023-06-18T06:58:05.951Z,5.70
2023-06-18T07:03:07.913Z,4.85
2023-06-18T07:08:09.712Z,5.28
2023-06-18T07:13:11.728Z,5.60
2023-06-18T07:18:12.410Z,5.70
2023-06-18T07:23:13.100Z,5.20
2023-06-18T07:28:15.164Z,5.57
2023-06-18T07:33:15.801Z,5.45
2023-06-18T07:38:16.671Z,5.60
2023-06-18T07:43:18.716Z,5.60
2023-06-18T07:48:19.979Z,5.68
2023-06-18T07:53:20.855Z,5.20
2023-06-18T07:58:23.227Z,5.05
2023-06-18T08:03:24.150Z,5.18
2023-06-18T08:08:24.897Z,4.90
2023-06-18T08:13:26.927Z,5.32
2023-06-18T08:18:27.852Z,4.82
2023-06-18T08:23:28.637Z,5.28
2023-06-18T08:28:30.700Z,4.72
2023-06-18T08:33:31.350Z,4.97
2023-06-18T08:38:32.018Z,4.40
2023-06-18T08:43:34.312Z,5.00
2023-06-18T08:48:41.701Z,5.05
2023-06-18T08:53:46.233Z,5.30
2023-06-18T08:58:52.110Z,4.80
2023-06-18T09:03:55.201Z,5.85
2023-06-18T09:08:57.755Z,5.85
2023-06-18T09:13:59.758Z,5.45
2023-06-18T09:19:04.888Z,6.20
2023-06-18T09:24:09.128Z,5.43
2023-06-18T09:29:12.404Z,7.43
2023-06-18T09:34:15.011Z,6.07
2023-06-18T09:39:19.889Z,5.68
2023-06-18T09:44:24.038Z,6.07
2023-06-18T09:49:26.313Z,6.32
2023-06-18T09:54:40.083Z,5.55
2023-06-18T09:59:42.435Z,5.60
2023-06-18T10:04:43.127Z,6.43
2023-06-18T10:09:46.828Z,6.00
2023-06-18T10:14:54.695Z,5.50
2023-06-18T10:20:01.744Z,5.88
2023-06-18T10:25:05.378Z,5.70
2023-06-18T10:30:08.899Z,5.85
2023-06-18T10:35:10.916Z,5.53
2023-06-18T10:40:13.212Z,5.53
2023-06-18T10:45:17.157Z,5.97
2023-06-18T10:50:21.408Z,5.80
2023-06-18T10:55:32.406Z,5.65
2023-06-18T11:00:37.087Z,5.97
2023-06-18T11:05:48.947Z,5.32
2023-06-18T11:10:51.097Z,4.93
2023-06-18T11:16:00.659Z,5.22
2023-06-18T11:21:04.210Z,5.53
2023-06-18T11:26:05.204Z,5.38
2023-06-18T11:31:07.326Z,4.90
2023-06-18T11:36:10.601Z,5.47
2023-06-18T11:41:12.009Z,5.80
2023-06-18T11:46:28.877Z,5.47
2023-06-18T11:51:31.085Z,5.20
2023-06-18T11:56:31.991Z,5.15
2023-06-18T12:01:34.558Z,5.45
2023-06-18T12:06:36.266Z,6.00
2023-06-18T12:11:52.828Z,5.45
2023-06-18T12:16:59.050Z,5.45
2023-06-18T12:22:00.838Z,5.65
2023-06-18T12:27:02.036Z,5.40
2023-06-18T12:32:05.892Z,5.72
2023-06-18T12:37:07.464Z,5.57
2023-06-18T12:42:13.404Z,5.00
2023-06-18T12:47:19.213Z,6.15
2023-06-18T12:52:21.136Z,5.53
2023-06-18T12:57:22.872Z,5.10
2023-06-18T13:02:25.240Z,5.50
2023-06-18T13:07:25.979Z,6.05
2023-06-18T13:12:26.661Z,5.90
2023-06-18T13:17:29.135Z,4.90
2023-06-18T13:22:30.276Z,5.07
2023-06-18T13:27:31.372Z,4.80
2023-06-18T13:32:33.513Z,4.43
2023-06-18T13:37:34.334Z,4.50
2023-06-18T13:42:35.042Z,4.00
2023-06-18T13:47:37.344Z,4.13
2023-06-18T13:52:38.217Z,5.25
2023-06-18T13:57:39.392Z,5.10
2023-06-18T14:02:41.555Z,4.50
2023-06-18T14:07:42.454Z,4.85
2023-06-18T14:12:43.126Z,4.90
2023-06-18T14:17:47.804Z,4.50
2023-06-18T14:22:51.003Z,4.43
2023-06-18T14:27:51.721Z,4.72
2023-06-18T14:32:53.958Z,4.47
2023-06-18T14:37:58.967Z,4.75
2023-06-18T14:43:00.068Z,4.00
2023-06-18T14:48:06.087Z,4.50
2023-06-18T14:53:08.716Z,4.50
2023-06-18T14:58:09.544Z,4.25
2023-06-18T15:03:11.622Z,5.10
2023-06-18T15:08:12.355Z,4.50
2023-06-18T15:13:13.083Z,4.72
2023-06-18T15:18:15.446Z,4.68
2023-06-18T15:23:16.243Z,4.32
2023-06-18T15:28:17.828Z,4.25
2023-06-18T15:33:19.922Z,3.83
2023-06-18T15:38:20.920Z,4.82
2023-06-18T15:43:22.027Z,5.07
2023-06-18T15:48:24.315Z,4.10
2023-06-18T15:53:24.937Z,4.75
2023-06-18T15:58:26.073Z,3.88
2023-06-18T16:03:28.033Z,4.63
2023-06-18T16:08:28.710Z,3.88
2023-06-18T16:13:29.775Z,4.18
2023-06-18T16:18:31.816Z,4.50
2023-06-18T16:23:32.493Z,4.28
2023-06-18T16:28:33.335Z,4.30
2023-06-18T16:33:36.403Z,3.90
2023-06-18T16:38:37.029Z,4.15
2023-06-18T16:43:38.805Z,4.25
2023-06-18T16:48:40.907Z,4.10
2023-06-18T16:53:41.570Z,4.20
2023-06-18T16:58:42.277Z,3.72
2023-06-18T17:03:44.309Z,4.00
2023-06-18T17:08:45.101Z,3.90
2023-06-18T17:13:46.025Z,3.72
2023-06-18T17:18:48.025Z,4.22
2023-06-18T17:23:48.671Z,3.97
2023-06-18T17:28:49.340Z,3.85
2023-06-18T17:33:51.369Z,3.92
2023-06-18T17:38:53.252Z,4.00
2023-06-18T17:43:53.954Z,3.97
2023-06-18T17:48:55.987Z,4.65
2023-06-18T17:53:56.756Z,4.18
2023-06-18T17:58:57.578Z,3.78
2023-06-18T18:03:59.605Z,4.35
2023-06-18T18:09:00.294Z,4.05
2023-06-18T18:14:05.007Z,4.03
2023-06-18T18:19:07.144Z,3.60
2023-06-18T18:24:08.262Z,4.63
2023-06-18T18:29:09.025Z,4.07
2023-06-18T18:34:11.866Z,4.88
2023-06-18T18:39:12.802Z,4.53
2023-06-18T18:44:13.536Z,5.05
2023-06-18T18:49:15.572Z,4.97
2023-06-18T18:54:17.465Z,5.53
2023-06-18T18:59:19.048Z,5.00
2023-06-18T19:04:21.323Z,4.95
2023-06-18T19:09:21.986Z,5.60
2023-06-18T19:14:22.868Z,5.10
2023-06-18T19:19:25.700Z,5.80
2023-06-18T19:24:26.436Z,5.20
2023-06-18T19:29:27.217Z,5.68
2023-06-18T19:34:29.260Z,5.97
2023-06-18T19:39:31.015Z,6.50
2023-06-18T19:44:31.703Z,6.40
2023-06-18T19:49:33.727Z,5.97
2023-06-18T19:54:37.401Z,7.35
2023-06-18T19:59:38.103Z,7.38
2023-06-18T20:04:40.145Z,7.65
2023-06-18T20:09:43.331Z,7.95
2023-06-18T20:14:46.719Z,7.88
2023-06-18T20:19:48.707Z,7.70
2023-06-18T20:24:49.401Z,7.30
2023-06-18T20:29:50.756Z,7.55
2023-06-18T20:34:54.892Z,8.23
2023-06-18T20:39:55.878Z,7.78
2023-06-18T20:44:56.567Z,8.13
2023-06-18T20:49:58.537Z,7.88
2023-06-18T20:54:59.202Z,7.32
2023-06-18T20:59:59.819Z,7.85
2023-06-18T21:05:01.953Z,8.20
2023-06-18T21:10:02.614Z,9.93
2023-06-18T21:15:03.660Z,11.45
2023-06-18T21:20:06.924Z,11.85
2023-06-18T21:25:08.224Z,9.43
2023-06-18T21:30:10.705Z,9.00
2023-06-18T21:35:12.743Z,7.90
2023-06-18T21:40:14.583Z,7.70
2023-06-18T21:45:15.288Z,8.13
2023-06-18T21:50:17.379Z,7.30
2023-06-18T21:55:18.474Z,8.40
2023-06-18T22:00:20.254Z,8.05
2023-06-18T22:05:22.277Z,8.30
2023-06-18T22:10:23.177Z,9.50
2023-06-18T22:15:24.027Z,7.85
2023-06-18T22:20:26.759Z,7.63
2023-06-18T22:25:32.190Z,8.00
2023-06-18T22:30:32.854Z,7.22
2023-06-18T22:35:35.742Z,7.60
2023-06-18T22:40:36.456Z,8.07
2023-06-18T22:45:37.387Z,7.35
2023-06-18T22:50:39.866Z,7.72
2023-06-18T22:55:40.578Z,8.18
2023-06-18T23:00:41.263Z,8.88
2023-06-18T23:05:43.247Z,9.13
2023-06-18T23:10:45.705Z,8.60
2023-06-18T23:15:46.640Z,8.23
2023-06-18T23:20:48.943Z,8.13
2023-06-18T23:25:49.570Z,9.02
2023-06-18T23:30:50.430Z,8.20
2023-06-18T23:35:52.569Z,7.85
2023-06-18T23:40:53.331Z,7.88
2023-06-18T23:45:53.981Z,8.60
2023-06-18T23:50:57.275Z,7.90
2023-06-18T23:55:57.900Z,8.10
